Wetterdaten: Woche 02.02.15 - 08.02.15 (KW6)
Datum Zeit Temp. A. Feuchte A. Luftdruck Regen Wind Richtung Sonnenschein ET UV Solar Taupunkt Windchill Windben
02.02.2015 00:00 -1,5 C 94 % 995,7 hPa 0,0 l/m 3,4 km/h (1 Bft) S 0,00 h 0,000 mm 0,0 UV-I 0 W/m -2,3 C -1,5 C 6,0 km/h (2 Bft)
02.02.2015 01:00 -1,6 C 95 % 995,8 hPa 0,0 l/m 2,7 km/h (1 Bft) S-SW 0,00 h 0,000 mm 0,0 UV-I 0 W/m -2,4 C -1,7 C 5,3 km/h (1 Bft)
02.02.2015 02:00 -1,4 C 95 % 996,0 hPa 0,0 l/m 3,2 km/h (1 Bft) SW 0,00 h 0,000 mm 0,0 UV-I 0 W/m -2,1 C -1,5 C 6,0 km/h (2 Bft)
02.02.2015 03:00 -1,3 C 96 % 996,0 hPa 0,0 l/m 1,1 km/h (1 Bft) SW 0,00 h 0,000 mm 0,0 UV-I 0 W/m -1,8 C -1,3 C 3,0 km/h (1 Bft)
02.02.2015 04:00 -1,1 C 96 % 996,3 hPa 0,0 l/m 1,9 km/h (1 Bft) W-SW 0,00 h 0,000 mm 0,0 UV-I 0 W/m -1,7 C -1,1 C 4,4 km/h (1 Bft)
02.02.2015 05:00 -1,0 C 96 % 996,6 hPa 0,0 l/m 1,3 km/h (1 Bft) N 0,00 h 0,000 mm 0,0 UV-I 0 W/m -1,6 C -1,0 C 2,7 km/h (1 Bft)
02.02.2015 06:00 -1,6 C 95 % 997,0 hPa 0,0 l/m 0,1 km/h (0 Bft) N 0,00 h 0,000 mm 0,0 UV-I 0 W/m -2,3 C -1,6 C 0,6 km/h (0 Bft)
02.02.2015 07:00 -2,3 C 95 % 997,5 hPa 0,0 l/m 0,2 km/h (0 Bft) N 0,00 h 0,000 mm 0,0 UV-I 9 W/m -3,0 C -2,3 C 0,9 km/h (0 Bft)
02.02.2015 08:00 -2,5 C 96 % 998,2 hPa 0,0 l/m 0,1 km/h (0 Bft) N 0,00 h 0,000 mm 0,0 UV-I 21 W/m -3,1 C -2,5 C 0,8 km/h (0 Bft)
02.02.2015 09:00 -1,9 C 96 % 998,7 hPa 0,2 l/m 0,3 km/h (0 Bft) N 0,52 h 0,000 mm 0,5 UV-I 62 W/m -2,3 C -1,9 C 1,1 km/h (1 Bft)
02.02.2015 10:00 -0,3 C 94 % 999,0 hPa 0,2 l/m 3,2 km/h (1 Bft) W 0,92 h 0,025 mm 0,5 UV-I 78 W/m -1,1 C -0,3 C 5,7 km/h (2 Bft)
02.02.2015 11:00 0,3 C 89 % 999,3 hPa 0,0 l/m 7,5 km/h (2 Bft) W-NW 1,00 h 0,025 mm 0,9 UV-I 202 W/m -1,2 C -1,4 C 12,0 km/h (2 Bft)
02.02.2015 12:00 0,9 C 81 % 999,5 hPa 0,0 l/m 8,4 km/h (2 Bft) W-NW 1,00 h 0,000 mm 1,0 UV-I 244 W/m -2,0 C -0,9 C 12,9 km/h (3 Bft)
02.02.2015 13:00 -0,3 C 87 % 999,8 hPa 0,0 l/m 7,3 km/h (2 Bft) W-SW 1,00 h 0,076 mm 0,6 UV-I 110 W/m -2,1 C -1,6 C 11,5 km/h (2 Bft)
02.02.2015 14:00 0,1 C 88 % 999,8 hPa 0,0 l/m 5,4 km/h (1 Bft) W-NW 1,00 h 0,051 mm 0,7 UV-I 132 W/m -1,7 C -0,6 C 8,8 km/h (2 Bft)
02.02.2015 15:00 -0,1 C 84 % 999,8 hPa 0,0 l/m 5,3 km/h (1 Bft) W-SW 1,00 h 0,051 mm 0,5 UV-I 73 W/m -2,4 C -1,0 C 8,5 km/h (2 Bft)
02.02.2015 16:00 -0,2 C 87 % 999,9 hPa 0,0 l/m 2,0 km/h (1 Bft) SW 0,10 h 0,025 mm 0,0 UV-I 25 W/m -2,1 C -0,2 C 4,7 km/h (1 Bft)
02.02.2015 17:00 -0,6 C 90 % 1000,0 hPa 0,0 l/m 2,8 km/h (1 Bft) SW 0,00 h 0,000 mm 0,0 UV-I 0 W/m -2,0 C -0,6 C 5,7 km/h (2 Bft)
02.02.2015 18:00 -1,1 C 94 % 1000,3 hPa 0,2 l/m 6,1 km/h (2 Bft) W-SW 0,00 h 0,000 mm 0,0 UV-I 0 W/m -2,0 C -1,8 C 10,1 km/h (2 Bft)
02.02.2015 19:00 -1,5 C 95 % 1000,5 hPa 0,0 l/m 7,6 km/h (2 Bft) W-SW 0,00 h 0,000 mm 0,0 UV-I 0 W/m -2,2 C -3,2 C 12,1 km/h (2 Bft)
02.02.2015 20:00 -1,5 C 94 % 1000,8 hPa 0,0 l/m 7,2 km/h (2 Bft) W-SW 0,00 h 0,000 mm 0,0 UV-I 0 W/m -2,3 C -2,9 C 11,6 km/h (2 Bft)
02.02.2015 21:00 -1,6 C 94 % 1000,9 hPa 0,0 l/m 4,3 km/h (1 Bft) SW 0,00 h 0,000 mm 0,0 UV-I 0 W/m -2,4 C -1,6 C 7,9 km/h (2 Bft)
02.02.2015 22:00 -1,6 C 95 % 1001,0 hPa 0,2 l/m 5,0 km/h (1 Bft) SW 0,00 h 0,001 mm 0,0 UV-I 0 W/m -2,3 C -1,7 C 8,7 km/h (2 Bft)
02.02.2015 23:00 -1,5 C 94 % 1001,1 hPa 0,0 l/m 6,2 km/h (2 Bft) SW 0,00 h 0,000 mm 0,0 UV-I 0 W/m -2,3 C -2,4 C 10,3 km/h (2 Bft)
03.02.2015 00:00 -1,6 C 95 % 1001,3 hPa 0,0 l/m 8,2 km/h (2 Bft) W-SW 0,00 h 0,000 mm 0,0 UV-I 0 W/m -2,3 C -3,6 C 13,3 km/h (3 Bft)
03.02.2015 01:00 -1,6 C 94 % 1001,5 hPa 0,0 l/m 9,4 km/h (2 Bft) W-SW 0,00 h 0,000 mm 0,0 UV-I 0 W/m -2,4 C -4,7 C 14,4 km/h (3 Bft)
03.02.2015 02:00 -1,5 C 94 % 1001,8 hPa 0,0 l/m 9,8 km/h (2 Bft) W-SW 0,00 h 0,000 mm 0,0 UV-I 0 W/m -2,4 C -4,8 C 14,9 km/h (3 Bft)
03.02.2015 03:00 -1,6 C 93 % 1001,9 hPa 0,0 l/m 8,1 km/h (2 Bft) W-SW 0,00 h 0,000 mm 0,0 UV-I 0 W/m -2,6 C -3,6 C 12,2 km/h (2 Bft)
03.02.2015 04:00 -1,7 C 92 % 1002,0 hPa 0,0 l/m 4,2 km/h (1 Bft) SW 0,00 h 0,000 mm 0,0 UV-I 0 W/m -2,8 C -2,0 C 7,3 km/h (2 Bft)
03.02.2015 05:00 -1,9 C 93 % 1002,2 hPa 0,2 l/m 6,8 km/h (2 Bft) SW 0,00 h 0,000 mm 0,0 UV-I 0 W/m -2,9 C -3,0 C 11,3 km/h (2 Bft)
03.02.2015 06:00 -2,1 C 92 % 1002,6 hPa 0,0 l/m 5,1 km/h (1 Bft) S-SW 0,00 h 0,000 mm 0,0 UV-I 0 W/m -3,2 C -2,3 C 8,8 km/h (2 Bft)
03.02.2015 07:00 -2,2 C 93 % 1002,9 hPa 0,0 l/m 3,8 km/h (1 Bft) S 0,00 h 0,000 mm 0,0 UV-I 6 W/m -3,2 C -2,3 C 7,2 km/h (2 Bft)
03.02.2015 08:00 -2,2 C 93 % 1003,3 hPa 0,0 l/m 1,9 km/h (1 Bft) SW 0,05 h 0,000 mm 0,0 UV-I 24 W/m -3,2 C -2,2 C 4,5 km/h (1 Bft)
03.02.2015 09:00 -1,5 C 92 % 1003,5 hPa 0,0 l/m 2,8 km/h (1 Bft) SW 1,00 h 0,000 mm 0,6 UV-I 111 W/m -2,7 C -1,5 C 5,4 km/h (2 Bft)
03.02.2015 10:00 -0,9 C 87 % 1003,9 hPa 0,0 l/m 7,0 km/h (2 Bft) W-SW 1,00 h 0,025 mm 0,7 UV-I 210 W/m -2,8 C -2,4 C 10,9 km/h (2 Bft)
03.02.2015 11:00 -0,8 C 85 % 1004,1 hPa 0,0 l/m 6,2 km/h (2 Bft) SW 1,00 h 0,076 mm 1,0 UV-I 246 W/m -3,0 C -1,6 C 9,9 km/h (2 Bft)
03.02.2015 12:00 -0,1 C 83 % 1004,0 hPa 0,0 l/m 5,7 km/h (2 Bft) W-SW 1,00 h 0,077 mm 1,1 UV-I 288 W/m -2,7 C -0,7 C 9,0 km/h (2 Bft)
03.02.2015 13:00 -0,2 C 83 % 1004,0 hPa 0,0 l/m 4,9 km/h (1 Bft) SW 1,00 h 0,102 mm 0,9 UV-I 229 W/m -2,7 C -0,4 C 8,1 km/h (2 Bft)
03.02.2015 14:00 -0,3 C 84 % 1004,0 hPa 0,0 l/m 5,5 km/h (2 Bft) W-SW 1,00 h 0,076 mm 0,6 UV-I 138 W/m -2,7 C -0,8 C 8,6 km/h (2 Bft)
03.02.2015 15:00 -0,0 C 82 % 1004,1 hPa 0,0 l/m 3,6 km/h (1 Bft) SW 1,00 h 0,051 mm 0,5 UV-I 153 W/m -2,7 C -0,1 C 6,1 km/h (2 Bft)
03.02.2015 16:00 -0,8 C 85 % 1004,3 hPa 0,0 l/m 1,1 km/h (1 Bft) SW 0,27 h 0,051 mm 0,0 UV-I 33 W/m -3,0 C -0,8 C 3,2 km/h (1 Bft)
03.02.2015 17:00 -1,5 C 88 % 1004,7 hPa 0,0 l/m 0,8 km/h (0 Bft) S-SW 0,00 h 0,025 mm 0,0 UV-I 0 W/m -3,3 C -1,5 C 2,1 km/h (1 Bft)
03.02.2015 18:00 -2,3 C 89 % 1005,1 hPa 0,0 l/m 0,1 km/h (0 Bft) N 0,00 h 0,000 mm 0,0 UV-I 0 W/m -3,9 C -2,3 C 0,4 km/h (0 Bft)
03.02.2015 19:00 -3,4 C 90 % 1005,7 hPa 0,0 l/m 0,3 km/h (0 Bft) N 0,00 h 0,000 mm 0,0 UV-I 0 W/m -4,7 C -3,4 C 1,4 km/h (1 Bft)
03.02.2015 20:00 -4,5 C 91 % 1006,0 hPa 0,0 l/m 1,3 km/h (1 Bft) O 0,00 h 0,000 mm 0,0 UV-I 0 W/m -5,7 C -4,5 C 2,2 km/h (1 Bft)
03.02.2015 21:00 -6,0 C 90 % 1006,5 hPa 0,0 l/m 0,0 km/h (0 Bft) N 0,00 h 0,000 mm 0,0 UV-I 0 W/m -7,4 C -6,0 C 0,1 km/h (0 Bft)
03.02.2015 22:00 -7,4 C 91 % 1006,8 hPa 0,0 l/m 0,1 km/h (0 Bft) N 0,00 h 0,000 mm 0,0 UV-I 0 W/m -8,6 C -7,4 C 0,5 km/h (0 Bft)
03.02.2015 23:00 -8,2 C 91 % 1007,0 hPa 0,0 l/m 0,0 km/h (0 Bft) N 0,00 h 0,000 mm 0,0 UV-I 0 W/m -9,4 C -8,2 C 0,3 km/h (0 Bft)
04.02.2015 00:00 -8,9 C 92 % 1007,4 hPa 0,0 l/m 0,0 km/h (0 Bft) N 0,00 h 0,000 mm 0,0 UV-I 0 W/m -10,0 C -8,9 C 0,4 km/h (0 Bft)
04.02.2015 01:00 -9,5 C 90 % 1007,8 hPa 0,0 l/m 0,0 km/h (0 Bft) N 0,00 h 0,000 mm 0,0 UV-I 0 W/m -10,8 C -9,5 C 0,0 km/h (0 Bft)
04.02.2015 02:00 -10,5 C 90 % 1008,1 hPa 0,0 l/m 0,0 km/h (0 Bft) N 0,00 h 0,000 mm 0,0 UV-I 0 W/m -11,8 C -10,5 C 0,2 km/h (0 Bft)
04.02.2015 03:00 -11,0 C 90 % 1008,3 hPa 0,0 l/m 0,0 km/h (0 Bft) N 0,00 h 0,000 mm 0,0 UV-I 0 W/m -12,3 C -11,0 C 0,1 km/h (0 Bft)
04.02.2015 04:00 -11,7 C 89 % 1008,5 hPa 0,0 l/m 0,0 km/h (0 Bft) N 0,00 h 0,000 mm 0,0 UV-I 0 W/m -13,1 C -11,7 C 0,1 km/h (0 Bft)
04.02.2015 05:00 -12,0 C 91 % 1009,0 hPa 0,0 l/m 0,1 km/h (0 Bft) N 0,00 h 0,000 mm 0,0 UV-I 0 W/m -13,2 C -12,0 C 0,2 km/h (0 Bft)
04.02.2015 06:00 -11,3 C 93 % 1009,4 hPa 0,0 l/m 0,2 km/h (0 Bft) N 0,00 h 0,000 mm 0,0 UV-I 0 W/m -12,2 C -11,3 C 0,7 km/h (0 Bft)
04.02.2015 07:00 -10,1 C 94 % 1010,1 hPa 0,0 l/m 0,0 km/h (0 Bft) N 0,00 h 0,000 mm 0,0 UV-I 7 W/m -10,8 C -10,1 C 0,2 km/h (0 Bft)
04.02.2015 08:00 -8,8 C 94 % 1010,7 hPa 0,0 l/m 0,0 km/h (0 Bft) N 0,00 h 0,000 mm 0,0 UV-I 19 W/m -9,5 C -8,8 C 0,1 km/h (0 Bft)
04.02.2015 09:00 -7,3 C 94 % 1011,4 hPa 0,0 l/m 0,0 km/h (0 Bft) N 0,85 h 0,000 mm 0,5 UV-I 87 W/m -8,1 C -7,3 C 0,1 km/h (0 Bft)
04.02.2015 10:00 -5,6 C 92 % 1012,0 hPa 0,0 l/m 0,0 km/h (0 Bft) N 1,00 h 0,025 mm 0,7 UV-I 147 W/m -6,8 C -5,6 C 0,5 km/h (0 Bft)
04.02.2015 11:00 -3,8 C 91 % 1012,5 hPa 0,0 l/m 0,1 km/h (0 Bft) N 1,00 h 0,051 mm 0,7 UV-I 148 W/m -5,1 C -3,8 C 0,6 km/h (0 Bft)
04.02.2015 12:00 -2,2 C 89 % 1012,7 hPa 0,0 l/m 1,5 km/h (1 Bft) N 1,00 h 0,051 mm 0,5 UV-I 104 W/m -3,8 C -2,2 C 3,6 km/h (1 Bft)
04.02.2015 13:00 -1,2 C 84 % 1012,8 hPa 0,0 l/m 4,5 km/h (1 Bft) N 1,00 h 0,025 mm 0,8 UV-I 165 W/m -3,5 C -1,4 C 8,0 km/h (2 Bft)
04.02.2015 14:00 -1,0 C 82 % 1013,1 hPa 0,0 l/m 4,8 km/h (1 Bft) N 1,00 h 0,051 mm 0,6 UV-I 129 W/m -3,7 C -1,2 C 7,8 km/h (2 Bft)
04.02.2015 15:00 -1,2 C 80 % 1013,6 hPa 0,0 l/m 5,1 km/h (1 Bft) N 1,00 h 0,051 mm 0,5 UV-I 104 W/m -4,2 C -1,5 C 8,7 km/h (2 Bft)
04.02.2015 16:00 -1,6 C 80 % 1014,3 hPa 0,0 l/m 3,4 km/h (1 Bft) N-NO 0,40 h 0,051 mm 0,0 UV-I 37 W/m -4,7 C -1,6 C 6,2 km/h (2 Bft)
04.02.2015 17:00 -2,2 C 81 % 1015,1 hPa 0,0 l/m 2,1 km/h (1 Bft) N-NO 0,00 h 0,025 mm 0,0 UV-I 5 W/m -5,0 C -2,2 C 4,3 km/h (1 Bft)
04.02.2015 18:00 -2,7 C 84 % 1015,7 hPa 0,0 l/m 7,9 km/h (2 Bft) N 0,00 h 0,000 mm 0,0 UV-I 0 W/m -5,0 C -4,8 C 11,9 km/h (2 Bft)
04.02.2015 19:00 -3,1 C 86 % 1016,4 hPa 0,0 l/m 5,9 km/h (2 Bft) N 0,00 h 0,000 mm 0,0 UV-I 0 W/m -5,1 C -4,3 C 9,4 km/h (2 Bft)
04.02.2015 20:00 -3,3 C 86 % 1017,1 hPa 0,0 l/m 0,3 km/h (0 Bft) N 0,00 h 0,000 mm 0,0 UV-I 0 W/m -5,2 C -3,3 C 1,1 km/h (1 Bft)
04.02.2015 21:00 -3,4 C 87 % 1017,8 hPa 0,0 l/m 0,2 km/h (0 Bft) N 0,00 h 0,000 mm 0,0 UV-I 0 W/m -5,2 C -3,4 C 0,5 km/h (0 Bft)
04.02.2015 22:00 -3,4 C 87 % 1018,0 hPa 0,0 l/m 1,0 km/h (0 Bft) N-NW 0,00 h 0,000 mm 0,0 UV-I 0 W/m -5,3 C -3,4 C 2,1 km/h (1 Bft)
04.02.2015 23:00 -3,6 C 88 % 1018,1 hPa 0,0 l/m 1,2 km/h (1 Bft) N-NW 0,00 h 0,000 mm 0,0 UV-I 0 W/m -5,3 C -3,6 C 3,0 km/h (1 Bft)
05.02.2015 00:00 -3,8 C 87 % 1018,1 hPa 0,0 l/m 0,1 km/h (0 Bft) N 0,00 h 0,000 mm 0,0 UV-I 0 W/m -5,6 C -3,8 C 0,7 km/h (0 Bft)
05.02.2015 01:00 -3,9 C 88 % 1018,3 hPa 0,0 l/m 0,3 km/h (0 Bft) N 0,00 h 0,000 mm 0,0 UV-I 0 W/m -5,6 C -3,9 C 1,0 km/h (0 Bft)
05.02.2015 02:00 -4,1 C 86 % 1018,1 hPa 0,0 l/m 1,5 km/h (1 Bft) NW 0,00 h 0,000 mm 0,0 UV-I 0 W/m -6,1 C -4,1 C 3,9 km/h (1 Bft)
05.02.2015 03:00 -5,0 C 84 % 1017,9 hPa 0,0 l/m 0,8 km/h (0 Bft) N 0,00 h 0,000 mm 0,0 UV-I 0 W/m -7,2 C -5,0 C 2,0 km/h (1 Bft)
05.02.2015 04:00 -6,2 C 87 % 1018,4 hPa 0,0 l/m 0,6 km/h (0 Bft) O-NO 0,00 h 0,000 mm 0,0 UV-I 0 W/m -8,1 C -6,2 C 1,6 km/h (1 Bft)
05.02.2015 05:00 -6,7 C 89 % 1018,5 hPa 0,0 l/m 1,1 km/h (0 Bft) N 0,00 h 0,000 mm 0,0 UV-I 0 W/m -8,2 C -6,7 C 2,4 km/h (1 Bft)
05.02.2015 06:00 -6,8 C 89 % 1018,4 hPa 0,0 l/m 0,7 km/h (0 Bft) N 0,00 h 0,000 mm 0,0 UV-I 0 W/m -8,3 C -6,8 C 2,3 km/h (1 Bft)
05.02.2015 07:00 -7,0 C 88 % 1018,7 hPa 0,0 l/m 0,1 km/h (0 Bft) N 0,00 h 0,000 mm 0,0 UV-I 7 W/m -8,7 C -7,0 C 0,7 km/h (0 Bft)
05.02.2015 08:00 -7,1 C 90 % 1019,4 hPa 0,0 l/m 0,8 km/h (0 Bft) O-NO 0,58 h 0,000 mm 0,0 UV-I 67 W/m -8,4 C -7,1 C 3,0 km/h (1 Bft)
05.02.2015 09:00 -4,3 C 83 % 1019,6 hPa 0,0 l/m 2,8 km/h (1 Bft) O-NO 1,00 h 0,025 mm 0,5 UV-I 155 W/m -6,8 C -4,3 C 7,3 km/h (2 Bft)
05.02.2015 10:00 -2,5 C 80 % 1019,6 hPa 0,0 l/m 6,0 km/h (2 Bft) N 1,00 h 0,051 mm 0,9 UV-I 322 W/m -5,5 C -3,5 C 12,1 km/h (2 Bft)
05.02.2015 11:00 -1,5 C 74 % 1019,5 hPa 0,0 l/m 7,6 km/h (2 Bft) NO 1,00 h 0,102 mm 1,2 UV-I 322 W/m -5,6 C -3,3 C 14,1 km/h (3 Bft)
05.02.2015 12:00 -1,7 C 74 % 1019,4 hPa 0,0 l/m 10,7 km/h (2 Bft) O-NO 1,00 h 0,127 mm 1,1 UV-I 248 W/m -5,7 C -5,8 C 19,6 km/h (3 Bft)
05.02.2015 13:00 -1,3 C 73 % 1019,6 hPa 0,0 l/m 10,2 km/h (2 Bft) O-NO 1,00 h 0,102 mm 1,1 UV-I 238 W/m -5,6 C -5,0 C 19,7 km/h (3 Bft)
05.02.2015 14:00 -1,6 C 75 % 1019,5 hPa 0,0 l/m 9,3 km/h (2 Bft) N-NO 1,00 h 0,102 mm 0,7 UV-I 136 W/m -5,5 C -4,7 C 16,6 km/h (3 Bft)
05.02.2015 15:00 -1,8 C 76 % 1019,7 hPa 0,0 l/m 9,5 km/h (2 Bft) O-NO 0,97 h 0,051 mm 0,5 UV-I 78 W/m -5,5 C -4,8 C 17,5 km/h (3 Bft)
05.02.2015 16:00 -2,2 C 77 % 1020,0 hPa 0,0 l/m 7,4 km/h (2 Bft) N-NO 0,00 h 0,051 mm 0,0 UV-I 20 W/m -5,7 C -4,1 C 14,7 km/h (3 Bft)
05.02.2015 17:00 -2,7 C 77 % 1020,4 hPa 0,0 l/m 8,7 km/h (2 Bft) NO 0,00 h 0,025 mm 0,0 UV-I 0 W/m -6,1 C -5,4 C 16,2 km/h (3 Bft)
05.02.2015 18:00 -3,1 C 78 % 1020,9 hPa 0,0 l/m 7,3 km/h (2 Bft) N 0,00 h 0,025 mm 0,0 UV-I 0 W/m -6,4 C -5,0 C 14,1 km/h (3 Bft)
05.02.2015 19:00 -3,7 C 81 % 1021,4 hPa 0,0 l/m 6,6 km/h (2 Bft) N 0,00 h 0,025 mm 0,0 UV-I 0 W/m -6,5 C -5,2 C 14,4 km/h (3 Bft)
05.02.2015 20:00 -3,9 C 80 % 1021,9 hPa 0,0 l/m 8,4 km/h (2 Bft) NO 0,00 h 0,000 mm 0,0 UV-I 0 W/m -6,7 C -6,4 C 15,4 km/h (3 Bft)
05.02.2015 21:00 -4,1 C 83 % 1022,4 hPa 0,0 l/m 8,7 km/h (2 Bft) O-NO 0,00 h 0,025 mm 0,0 UV-I 0 W/m -6,6 C -7,1 C 17,4 km/h (3 Bft)
05.02.2015 22:00 -4,2 C 84 % 1022,4 hPa 0,0 l/m 12,0 km/h (2 Bft) O-NO 0,00 h 0,000 mm 0,0 UV-I 0 W/m -6,5 C -9,5 C 20,1 km/h (4 Bft)
05.02.2015 23:00 -4,3 C 84 % 1022,4 hPa 0,0 l/m 12,3 km/h (2 Bft) O-NO 0,00 h 0,025 mm 0,0 UV-I 0 W/m -6,6 C -10,0 C 22,0 km/h (4 Bft)
06.02.2015 00:00 -4,6 C 85 % 1022,5 hPa 0,0 l/m 13,2 km/h (3 Bft) O-NO 0,00 h 0,025 mm 0,0 UV-I 0 W/m -6,8 C -10,9 C 24,3 km/h (4 Bft)
06.02.2015 01:00 -4,7 C 85 % 1022,5 hPa 0,0 l/m 12,2 km/h (2 Bft) O-NO 0,00 h 0,025 mm 0,0 UV-I 0 W/m -6,8 C -10,3 C 21,8 km/h (4 Bft)
06.02.2015 02:00 -5,0 C 86 % 1022,8 hPa 0,0 l/m 12,0 km/h (2 Bft) O-NO 0,00 h 0,000 mm 0,0 UV-I 0 W/m -6,9 C -10,4 C 20,7 km/h (4 Bft)
06.02.2015 03:00 -4,6 C 87 % 1022,8 hPa 0,0 l/m 12,9 km/h (3 Bft) O-NO 0,00 h 0,000 mm 0,0 UV-I 0 W/m -6,5 C -10,8 C 22,1 km/h (4 Bft)
06.02.2015 04:00 -3,9 C 85 % 1022,9 hPa 0,0 l/m 10,5 km/h (2 Bft) O-NO 0,00 h 0,000 mm 0,0 UV-I 0 W/m -6,1 C -8,2 C 19,0 km/h (3 Bft)
06.02.2015 05:00 -3,7 C 85 % 1022,8 hPa 0,0 l/m 11,1 km/h (2 Bft) O-NO 0,00 h 0,000 mm 0,0 UV-I 0 W/m -5,8 C -8,3 C 19,4 km/h (3 Bft)
06.02.2015 06:00 -3,6 C 85 % 1023,1 hPa 0,0 l/m 11,7 km/h (2 Bft) O-NO 0,00 h 0,025 mm 0,0 UV-I 0 W/m -5,7 C -8,5 C 21,2 km/h (4 Bft)
06.02.2015 07:00 -3,7 C 85 % 1023,3 hPa 0,0 l/m 10,2 km/h (2 Bft) O-NO 0,00 h 0,025 mm 0,0 UV-I 7 W/m -5,8 C -7,6 C 18,7 km/h (3 Bft)
06.02.2015 08:00 -3,6 C 85 % 1023,7 hPa 0,0 l/m 7,6 km/h (2 Bft) O-NO 0,05 h 0,000 mm 0,0 UV-I 28 W/m -5,8 C -5,7 C 15,1 km/h (3 Bft)
06.02.2015 09:00 -3,2 C 82 % 1024,0 hPa 0,0 l/m 10,0 km/h (2 Bft) N 1,00 h 0,025 mm 0,6 UV-I 136 W/m -5,8 C -7,0 C 19,5 km/h (3 Bft)
06.02.2015 10:00 -2,3 C 79 % 1024,5 hPa 0,0 l/m 11,0 km/h (2 Bft) O-NO 1,00 h 0,051 mm 1,0 UV-I 272 W/m -5,5 C -7,0 C 21,1 km/h (4 Bft)
06.02.2015 11:00 -1,0 C 74 % 1024,2 hPa 0,0 l/m 11,7 km/h (2 Bft) O-NO 1,00 h 0,102 mm 1,3 UV-I 404 W/m -5,1 C -5,8 C 20,4 km/h (4 Bft)
06.02.2015 12:00 0,3 C 71 % 1024,1 hPa 0,0 l/m 10,4 km/h (2 Bft) O-NO 1,00 h 0,152 mm 1,3 UV-I 418 W/m -4,3 C -3,4 C 18,5 km/h (3 Bft)
06.02.2015 13:00 1,1 C 63 % 1024,0 hPa 0,0 l/m 11,0 km/h (2 Bft) O-NO 1,00 h 0,178 mm 1,3 UV-I 401 W/m -5,2 C -2,8 C 19,0 km/h (3 Bft)
06.02.2015 14:00 1,4 C 59 % 1024,1 hPa 0,0 l/m 9,9 km/h (2 Bft) O-NO 1,00 h 0,178 mm 1,0 UV-I 329 W/m -5,7 C -1,8 C 17,2 km/h (3 Bft)
06.02.2015 15:00 1,0 C 59 % 1024,3 hPa 0,0 l/m 7,2 km/h (2 Bft) O-NO 1,00 h 0,152 mm 0,6 UV-I 201 W/m -6,2 C -0,6 C 13,8 km/h (3 Bft)
06.02.2015 16:00 -0,1 C 61 % 1024,6 hPa 0,0 l/m 3,3 km/h (1 Bft) O-NO 0,47 h 0,102 mm 0,0 UV-I 46 W/m -6,7 C -0,3 C 8,0 km/h (2 Bft)
06.02.2015 17:00 -1,6 C 66 % 1025,0 hPa 0,0 l/m 3,8 km/h (1 Bft) N-NO 0,00 h 0,025 mm 0,0 UV-I 7 W/m -7,1 C -2,0 C 7,6 km/h (2 Bft)
06.02.2015 18:00 -2,9 C 72 % 1025,6 hPa 0,0 l/m 0,4 km/h (0 Bft) N 0,00 h 0,000 mm 0,0 UV-I 0 W/m -7,2 C -2,9 C 1,7 km/h (1 Bft)
06.02.2015 19:00 -4,1 C 78 % 1026,3 hPa 0,0 l/m 1,0 km/h (0 Bft) N 0,00 h 0,000 mm 0,0 UV-I 0 W/m -7,4 C -4,1 C 2,3 km/h (1 Bft)
06.02.2015 20:00 -5,1 C 81 % 1027,0 hPa 0,0 l/m 0,4 km/h (0 Bft) N 0,00 h 0,000 mm 0,0 UV-I 0 W/m -7,9 C -5,1 C 1,2 km/h (1 Bft)
06.02.2015 21:00 -6,1 C 82 % 1027,7 hPa 0,0 l/m 0,7 km/h (0 Bft) O 0,00 h 0,000 mm 0,0 UV-I 0 W/m -8,7 C -6,1 C 2,0 km/h (1 Bft)
06.02.2015 22:00 -7,0 C 84 % 1028,2 hPa 0,0 l/m 0,2 km/h (0 Bft) N 0,00 h 0,000 mm 0,0 UV-I 0 W/m -9,3 C -7,0 C 0,9 km/h (0 Bft)
06.02.2015 23:00 -8,0 C 86 % 1028,7 hPa 0,0 l/m 0,3 km/h (0 Bft) N 0,00 h 0,000 mm 0,0 UV-I 0 W/m -10,0 C -8,0 C 1,2 km/h (1 Bft)
07.02.2015 00:00 -8,8 C 88 % 1028,9 hPa 0,0 l/m 0,3 km/h (0 Bft) O-NO 0,00 h 0,000 mm 0,0 UV-I 0 W/m -10,5 C -8,8 C 1,9 km/h (1 Bft)
07.02.2015 01:00 -9,0 C 90 % 1029,2 hPa 0,0 l/m 2,3 km/h (1 Bft) NO 0,00 h 0,000 mm 0,0 UV-I 0 W/m -10,4 C -9,0 C 4,9 km/h (1 Bft)
07.02.2015 02:00 -8,6 C 90 % 1029,7 hPa 0,0 l/m 3,1 km/h (1 Bft) NO 0,00 h 0,000 mm 0,0 UV-I 0 W/m -9,9 C -8,6 C 5,7 km/h (2 Bft)
07.02.2015 03:00 -9,2 C 88 % 1029,8 hPa 0,0 l/m 2,4 km/h (1 Bft) NO 0,00 h 0,000 mm 0,0 UV-I 0 W/m -10,8 C -9,2 C 5,2 km/h (1 Bft)
07.02.2015 04:00 -10,5 C 88 % 1030,0 hPa 0,0 l/m 0,3 km/h (0 Bft) O-NO 0,00 h 0,000 mm 0,0 UV-I 0 W/m -12,1 C -10,5 C 1,4 km/h (1 Bft)
07.02.2015 05:00 -11,0 C 90 % 1030,1 hPa 0,0 l/m 1,1 km/h (1 Bft) O-NO 0,00 h 0,000 mm 0,0 UV-I 0 W/m -12,4 C -11,0 C 2,9 km/h (1 Bft)
07.02.2015 06:00 -11,3 C 90 % 1029,9 hPa 0,0 l/m 1,1 km/h (0 Bft) N 0,00 h 0,000 mm 0,0 UV-I 0 W/m -12,6 C -11,3 C 2,1 km/h (1 Bft)
07.02.2015 07:00 -11,7 C 90 % 1030,0 hPa 0,0 l/m 0,2 km/h (0 Bft) N 0,00 h 0,000 mm 0,0 UV-I 9 W/m -13,0 C -11,7 C 0,4 km/h (0 Bft)
07.02.2015 08:00 -11,1 C 91 % 1030,3 hPa 0,0 l/m 0,3 km/h (0 Bft) N 0,58 h 0,000 mm 0,0 UV-I 64 W/m -12,2 C -11,1 C 0,8 km/h (0 Bft)
07.02.2015 09:00 -7,0 C 87 % 1029,8 hPa 0,0 l/m 1,1 km/h (1 Bft) N 1,00 h 0,025 mm 0,7 UV-I 235 W/m -8,8 C -7,0 C 2,2 km/h (1 Bft)
07.02.2015 10:00 -3,3 C 77 % 1029,6 hPa 0,0 l/m 1,3 km/h (1 Bft) NW 1,00 h 0,051 mm 1,1 UV-I 353 W/m -6,8 C -3,3 C 3,1 km/h (1 Bft)
07.02.2015 11:00 -1,7 C 72 % 1029,4 hPa 0,0 l/m 3,2 km/h (1 Bft) W-NW 1,00 h 0,102 mm 1,5 UV-I 418 W/m -6,1 C -1,7 C 5,6 km/h (2 Bft)
07.02.2015 12:00 -0,3 C 66 % 1029,4 hPa 0,0 l/m 5,0 km/h (1 Bft) W-NW 1,00 h 0,127 mm 1,6 UV-I 439 W/m -5,9 C -0,5 C 8,2 km/h (2 Bft)
07.02.2015 13:00 0,7 C 61 % 1028,8 hPa 0,0 l/m 2,8 km/h (1 Bft) N-NW 1,00 h 0,152 mm 1,4 UV-I 403 W/m -6,0 C 0,6 C 5,5 km/h (2 Bft)
07.02.2015 14:00 1,0 C 57 % 1027,8 hPa 0,0 l/m 1,8 km/h (1 Bft) S 1,00 h 0,152 mm 1,1 UV-I 332 W/m -6,5 C 1,0 C 3,8 km/h (1 Bft)
07.02.2015 15:00 2,0 C 54 % 1027,3 hPa 0,0 l/m 4,2 km/h (1 Bft) NW 1,00 h 0,127 mm 0,6 UV-I 204 W/m -6,2 C 1,8 C 6,6 km/h (2 Bft)
07.02.2015 16:00 1,0 C 57 % 1026,6 hPa 0,0 l/m 3,5 km/h (1 Bft) W-NW 0,30 h 0,102 mm 0,0 UV-I 44 W/m -6,6 C 0,8 C 6,0 km/h (2 Bft)
07.02.2015 17:00 -0,5 C 65 % 1026,6 hPa 0,0 l/m 1,6 km/h (1 Bft) N 0,00 h 0,025 mm 0,0 UV-I 8 W/m -6,2 C -0,5 C 3,0 km/h (1 Bft)
07.02.2015 18:00 -2,1 C 73 % 1026,2 hPa 0,0 l/m 0,1 km/h (0 Bft) N 0,00 h 0,000 mm 0,0 UV-I 0 W/m -6,3 C -2,1 C 0,6 km/h (0 Bft)
07.02.2015 19:00 -3,4 C 78 % 1026,1 hPa 0,0 l/m 0,1 km/h (0 Bft) N 0,00 h 0,000 mm 0,0 UV-I 0 W/m -6,6 C -3,4 C 0,7 km/h (0 Bft)
07.02.2015 20:00 -4,5 C 82 % 1025,4 hPa 0,0 l/m 0,1 km/h (0 Bft) N 0,00 h 0,000 mm 0,0 UV-I 0 W/m -7,1 C -4,5 C 0,4 km/h (0 Bft)
07.02.2015 21:00 -3,8 C 86 % 1024,3 hPa 0,0 l/m 3,7 km/h (1 Bft) W-NW 0,00 h 0,001 mm 0,0 UV-I 0 W/m -5,8 C -3,9 C 6,7 km/h (2 Bft)
07.02.2015 22:00 -2,6 C 90 % 1023,5 hPa 0,0 l/m 5,6 km/h (2 Bft) W-SW 0,00 h 0,000 mm 0,0 UV-I 0 W/m -4,0 C -2,8 C 9,1 km/h (2 Bft)
07.02.2015 23:00 -2,9 C 91 % 1022,4 hPa 0,0 l/m 5,1 km/h (1 Bft) W-SW 0,00 h 0,000 mm 0,0 UV-I 0 W/m -4,1 C -3,0 C 8,4 km/h (2 Bft)
08.02.2015 00:00 -2,5 C 92 % 1021,8 hPa 0,0 l/m 3,2 km/h (1 Bft) W-SW 0,00 h 0,000 mm 0,0 UV-I 0 W/m -3,6 C -2,5 C 6,1 km/h (2 Bft)
08.02.2015 01:00 -1,8 C 94 % 1020,8 hPa 0,0 l/m 7,1 km/h (2 Bft) W 0,00 h 0,000 mm 0,0 UV-I 0 W/m -2,7 C -3,3 C 11,4 km/h (2 Bft)
08.02.2015 02:00 -1,3 C 93 % 1019,1 hPa 0,0 l/m 10,1 km/h (2 Bft) W 0,00 h 0,000 mm 0,0 UV-I 0 W/m -2,2 C -4,7 C 15,8 km/h (3 Bft)
08.02.2015 03:00 -0,8 C 94 % 1018,3 hPa 0,0 l/m 12,2 km/h (2 Bft) W 0,00 h 0,000 mm 0,0 UV-I 0 W/m -1,6 C -5,9 C 18,8 km/h (3 Bft)
08.02.2015 04:00 -0,6 C 94 % 1018,0 hPa 0,2 l/m 14,8 km/h (3 Bft) N-NW 0,00 h 0,000 mm 0,0 UV-I 0 W/m -1,4 C -7,3 C 23,9 km/h (4 Bft)
08.02.2015 05:00 -0,5 C 89 % 1018,2 hPa 0,2 l/m 15,7 km/h (3 Bft) N-NW 0,00 h 0,000 mm 0,0 UV-I 0 W/m -2,0 C -7,6 C 24,9 km/h (4 Bft)
08.02.2015 06:00 -1,0 C 87 % 1018,4 hPa 0,0 l/m 14,5 km/h (3 Bft) N-NW 0,00 h 0,025 mm 0,0 UV-I 0 W/m -2,9 C -7,6 C 23,0 km/h (4 Bft)
08.02.2015 07:00 -1,4 C 82 % 1019,0 hPa 0,0 l/m 12,3 km/h (2 Bft) N-NW 0,00 h 0,025 mm 0,0 UV-I 8 W/m -4,1 C -6,7 C 19,7 km/h (3 Bft)
08.02.2015 08:00 -1,7 C 81 % 1019,9 hPa 0,0 l/m 11,3 km/h (2 Bft) NW 0,03 h 0,025 mm 0,0 UV-I 22 W/m -4,5 C -6,2 C 17,0 km/h (3 Bft)
08.02.2015 09:00 -1,3 C 81 % 1020,5 hPa 0,0 l/m 10,6 km/h (2 Bft) N-NW 0,88 h 0,025 mm 0,6 UV-I 86 W/m -4,1 C -5,2 C 17,5 km/h (3 Bft)
08.02.2015 10:00 -0,8 C 80 % 1021,1 hPa 0,2 l/m 13,7 km/h (3 Bft) N-NW 1,00 h 0,051 mm 0,9 UV-I 186 W/m -3,8 C -6,8 C 21,7 km/h (4 Bft)
08.02.2015 11:00 -0,8 C 74 % 1021,7 hPa 0,2 l/m 15,0 km/h (3 Bft) N-NW 1,00 h 0,076 mm 1,1 UV-I 124 W/m -4,9 C -7,5 C 25,4 km/h (4 Bft)
08.02.2015 12:00 0,2 C 66 % 1022,1 hPa 0,0 l/m 17,1 km/h (3 Bft) N 1,00 h 0,076 mm 1,5 UV-I 391 W/m -5,4 C -7,6 C 27,8 km/h (5 Bft)
08.02.2015 13:00 0,3 C 58 % 1022,5 hPa 0,0 l/m 17,1 km/h (3 Bft) N-NW 1,00 h 0,178 mm 1,3 UV-I 315 W/m -6,9 C -7,5 C 27,1 km/h (5 Bft)
08.02.2015 14:00 0,6 C 54 % 1022,8 hPa 0,0 l/m 18,7 km/h (3 Bft) N-NW 1,00 h 0,152 mm 1,0 UV-I 314 W/m -7,7 C -7,8 C 30,0 km/h (5 Bft)
08.02.2015 15:00 -0,7 C 65 % 1023,6 hPa 0,0 l/m 15,4 km/h (3 Bft) N 0,95 h 0,178 mm 0,6 UV-I 116 W/m -6,6 C -7,6 C 24,1 km/h (4 Bft)
08.02.2015 16:00 -1,3 C 68 % 1024,2 hPa 0,0 l/m 13,0 km/h (3 Bft) N-NW 0,25 h 0,076 mm 0,0 UV-I 40 W/m -6,4 C -6,8 C 20,8 km/h (4 Bft)
08.02.2015 17:00 -2,0 C 70 % 1025,2 hPa 0,0 l/m 9,2 km/h (2 Bft) N-NW 0,00 h 0,053 mm 0,0 UV-I 8 W/m -6,7 C -5,0 C 15,1 km/h (3 Bft)
08.02.2015 18:00 -2,5 C 73 % 1026,0 hPa 0,0 l/m 7,5 km/h (2 Bft) NW 0,00 h 0,025 mm 0,0 UV-I 0 W/m -6,7 C -4,1 C 11,7 km/h (2 Bft)
08.02.2015 19:00 -2,8 C 71 % 1026,6 hPa 0,0 l/m 7,1 km/h (2 Bft) NW 0,00 h 0,025 mm 0,0 UV-I 0 W/m -7,2 C -4,3 C 11,9 km/h (2 Bft)
08.02.2015 20:00 -3,0 C 71 % 1027,1 hPa 0,0 l/m 5,2 km/h (1 Bft) W-NW 0,00 h 0,025 mm 0,0 UV-I 0 W/m -7,5 C -3,5 C 8,6 km/h (2 Bft)
08.02.2015 21:00 -3,3 C 71 % 1027,8 hPa 0,0 l/m 2,0 km/h (1 Bft) W 0,00 h 0,026 mm 0,0 UV-I 0 W/m -7,7 C -3,3 C 4,5 km/h (1 Bft)
08.02.2015 22:00 -3,9 C 73 % 1027,9 hPa 0,0 l/m 1,8 km/h (1 Bft) W 0,00 h 0,025 mm 0,0 UV-I 0 W/m -8,0 C -3,9 C 4,0 km/h (1 Bft)
08.02.2015 23:00 -4,9 C 77 % 1027,7 hPa 0,0 l/m 4,5 km/h (1 Bft) W-NW 0,00 h 0,000 mm 0,0 UV-I 0 W/m -8,3 C -5,0 C 7,1 km/h (2 Bft)
Min-Datum _ 04.02.15 08.02.15 02.02.15 - 02.02.15 - - - - - 04.02.15 06.02.15 02.02.15
_ Min-Zeit 05:02 14:31 00:12 - 00:39 - - - - - 05:02 06:43 03:21
Minimum _ -12,1 C 51 % 995,6 hPa - 0,0 km/h (0 Bft) - - - - - -13,5 C -17,5 C 0,0 km/h (0 Bft)
Max-Datum _ 07.02.15 02.02.15 07.02.15 02.02.15 08.02.15 - 03.02.15 06.02.15 08.02.15 08.02.15 02.02.15 07.02.15 08.02.15
_ Max-Zeit 15:22 09:33 08:14 09:27 11:22 - 12:05 13:00 12:44 12:45 11:22 15:25 12:37
Maximum _ 2,3 C 97 % 1030,4 hPa 0,2 l/m 32,2 km/h
N-NW (5 Bft)
- 0,07 h 0,178 mm 1,9 UV-I 650 W/m -0,7 C 2,3 C 53,1 km/h
N (7 Bft)
Durchschnitt _ -3,2 C 84 % 1015,7 hPa #1,8 l/m 5,1 km/h (1 Bft) N #51:10 h #4,798 mm 0,9 UV-I 153 W/m -5,7 C -4,7 C 8,9 km/h (2 Bft)